Time;durP1;ratioP1;P1;durP2;ratioP2;P2;SDS_P1;SDS_P2;PMS_P1;PMS_P2;Temp;Humidity;BMP_temperature;BMP_pressure;BME280_temperature;BME280_humidity;BME280_pressure;Samples;Min_cycle;Max_cycle;Signal;HPM_P1;HPM_P2
2023/05/21 00:00:52;;;;;;;;;;;;;;;10.53;69.53;101276.34;5038496;28;20287;-88
2023/05/21 00:03:18;;;;;;;;;;;;;;;10.50;68.51;101272.97;5038546;28;19917;-89
2023/05/21 00:05:45;;;;;;;;;;;;;;;10.43;70.23;101265.56;5019921;28;20394;-88
2023/05/21 00:08:11;;;;;;;;;;;;;;;10.42;70.02;101274.25;5020550;28;19924;-88
2023/05/21 00:10:36;;;;;;;;;;;;;;;10.44;69.05;101273.25;5038440;28;19917;-87
2023/05/21 00:13:01;;;;;;;;;;;;;;;10.34;69.23;101269.41;5038520;28;20011;-88
2023/05/21 00:15:27;;;;;;;;;;;;;;;10.35;68.74;101275.41;5038325;28;19920;-88
2023/05/21 00:17:52;;;;;;;;;;;;;;;10.25;69.90;101274.94;5038316;28;19921;-88
2023/05/21 00:20:17;;;;;;;;;;;;;;;10.11;70.93;101269.50;5037176;28;19921;-88
2023/05/21 00:22:42;;;;;;;;;;;;;;;10.21;70.88;101279.38;5038418;28;19943;-89
2023/05/21 00:25:08;;;;;;;;;;;;;;;10.18;70.75;101269.19;5038470;28;20016;-88
2023/05/21 00:27:34;;;;;;;;;;;;;;;10.16;70.63;101262.41;5038474;28;19917;-89
2023/05/21 00:29:59;;;;;;;;;;;;;;;10.20;69.97;101264.81;5038171;28;19924;-88
2023/05/21 00:32:24;;;;;;;;;;;;;;;10.14;69.60;101259.88;5038314;28;19924;-88
2023/05/21 00:34:50;;;;;;;;;;;;;;;9.99;70.26;101263.13;5037362;28;19931;-88
2023/05/21 00:37:15;;;;;;;;;;;;;;;9.83;70.91;101261.19;5038222;28;19917;-89
2023/05/21 00:39:40;;;;;;;;;;;;;;;9.99;70.35;101263.94;5038178;28;19921;-89
2023/05/21 00:42:06;;;;;;;;;;;;;;;9.96;70.81;101260.69;5038411;28;19959;-88
2023/05/21 00:44:34;;;;;;;;;;;;;;;9.85;70.40;101259.38;5036348;28;20294;-88
2023/05/21 00:47:03;;;;;;;;;;;;;;;9.85;70.89;101268.84;5035136;28;19968;-88
2023/05/21 00:49:29;;;;;;;;;;;;;;;9.94;69.32;101273.63;5033958;28;19921;-88
2023/05/21 00:51:55;;;;;;;;;;;;;;;9.89;69.97;101265.25;5034569;28;20004;-88
2023/05/21 00:54:20;;;;;;;;;;;;;;;9.80;70.40;101265.63;5035254;28;20051;-88
2023/05/21 00:56:46;;;;;;;;;;;;;;;9.75;70.81;101270.94;5035051;28;20356;-88
2023/05/21 00:59:12;;;;;;;;;;;;;;;9.74;69.82;101264.13;5034836;28;19917;-88
2023/05/21 01:01:37;;;;;;;;;;;;;;;9.77;69.94;101268.31;5034963;28;19917;-88
2023/05/21 01:04:03;;;;;;;;;;;;;;;9.69;69.75;101262.66;5033689;28;19987;-89
2023/05/21 01:06:28;;;;;;;;;;;;;;;9.68;70.38;101263.53;5034655;28;19956;-88
2023/05/21 01:08:57;;;;;;;;;;;;;;;9.77;69.79;101269.16;5034582;28;19919;-87
2023/05/21 01:11:30;;;;;;;;;;;;;;;9.67;70.84;101273.00;5034476;28;19917;-88
2023/05/21 01:13:56;;;;;;;;;;;;;;;9.54;70.97;101269.25;5034768;28;19917;-87
2023/05/21 01:16:22;;;;;;;;;;;;;;;9.45;71.70;101270.44;5034268;28;19925;-88
2023/05/21 01:18:47;;;;;;;;;;;;;;;9.43;71.00;101267.94;5033363;28;19929;-88
2023/05/21 01:21:16;;;;;;;;;;;;;;;9.39;72.07;101266.38;5016935;28;20426;-87
2023/05/21 01:23:41;;;;;;;;;;;;;;;9.37;71.81;101263.03;5015493;28;19921;-88
2023/05/21 01:26:07;;;;;;;;;;;;;;;9.33;71.76;101256.31;5034331;28;19923;-87
2023/05/21 01:28:33;;;;;;;;;;;;;;;9.32;72.75;101262.38;5034338;28;19968;-87
2023/05/21 01:31:03;;;;;;;;;;;;;;;9.25;72.87;101260.94;5033268;28;20469;-88
2023/05/21 01:33:32;;;;;;;;;;;;;;;9.30;72.06;101259.00;5034331;28;19917;-88
2023/05/21 01:36:02;;;;;;;;;;;;;;;9.18;72.54;101257.75;5034280;28;19917;-88
2023/05/21 01:38:33;;;;;;;;;;;;;;;9.18;72.39;101254.34;5033799;28;19924;-87
2023/05/21 01:41:03;;;;;;;;;;;;;;;9.10;73.49;101259.78;5034170;28;19917;-88
2023/05/21 01:43:31;;;;;;;;;;;;;;;8.88;74.62;101258.94;5034498;28;19917;-88
2023/05/21 01:45:57;;;;;;;;;;;;;;;8.85;75.69;101253.88;5033827;28;19921;-88
2023/05/21 01:48:24;;;;;;;;;;;;;;;8.83;75.64;101255.66;5033845;28;19917;-88
2023/05/21 01:50:50;;;;;;;;;;;;;;;8.57;77.60;101260.03;5033915;28;19917;-87
2023/05/21 01:53:16;;;;;;;;;;;;;;;8.64;77.26;101256.34;5033943;28;19917;-88
2023/05/21 01:55:41;;;;;;;;;;;;;;;8.67;77.62;101253.66;5034664;28;20272;-88
2023/05/21 01:58:07;;;;;;;;;;;;;;;8.73;77.14;101255.16;5034260;28;19923;-87
2023/05/21 02:00:33;;;;;;;;;;;;;;;8.74;77.76;101249.13;5033168;28;19924;-88
2023/05/21 02:02:58;;;;;;;;;;;;;;;8.64;77.27;101258.09;5034775;28;19917;-87
2023/05/21 02:05:24;;;;;;;;;;;;;;;8.65;77.10;101257.19;5033562;28;20008;-88
2023/05/21 02:07:50;;;;;;;;;;;;;;;8.42;77.92;101251.13;5033691;28;19913;-88
2023/05/21 02:10:16;;;;;;;;;;;;;;;8.57;76.82;101260.88;5033633;28;19923;-88
2023/05/21 02:12:42;;;;;;;;;;;;;;;8.53;77.29;101259.31;5016026;28;19917;-88
2023/05/21 02:15:07;;;;;;;;;;;;;;;8.47;78.39;101248.41;5032667;28;19980;-88
2023/05/21 02:17:32;;;;;;;;;;;;;;;8.42;78.60;101248.56;5032894;28;19944;-87
2023/05/21 02:20:10;;;;;;;;;;;;;;;8.39;79.14;101245.19;5035006;28;19917;-88
2023/05/21 02:22:45;;;;;;;;;;;;;;;8.36;79.48;101257.31;5019680;28;19932;-88
2023/05/21 02:25:12;;;;;;;;;;;;;;;8.31;79.24;101253.19;5033439;28;19913;-88
2023/05/21 02:27:37;;;;;;;;;;;;;;;8.23;80.10;101252.63;5033751;28;19917;-87
2023/05/21 02:30:04;;;;;;;;;;;;;;;8.17;80.89;101251.13;5033427;28;20402;-88
2023/05/21 02:32:33;;;;;;;;;;;;;;;8.10;81.25;101253.06;5034323;28;20410;-87
2023/05/21 02:34:59;;;;;;;;;;;;;;;8.20;80.93;101263.03;5034307;28;19917;-88
2023/05/21 02:37:28;;;;;;;;;;;;;;;8.09;82.39;101258.25;5040892;28;19917;-88
2023/05/21 02:39:53;;;;;;;;;;;;;;;8.14;82.47;101262.34;5035687;28;19917;-89
2023/05/21 02:42:18;;;;;;;;;;;;;;;8.10;82.35;101260.78;5036715;28;19925;-88
2023/05/21 02:44:44;;;;;;;;;;;;;;;8.11;82.58;101246.19;5040167;28;19947;-88
2023/05/21 02:47:11;;;;;;;;;;;;;;;7.99;82.67;101252.56;5039134;28;19917;-88
2023/05/21 02:49:36;;;;;;;;;;;;;;;8.04;82.56;101260.97;5039511;28;19917;-87
2023/05/21 02:52:01;;;;;;;;;;;;;;;7.92;83.67;101257.09;5022519;28;19917;-87
2023/05/21 02:54:27;;;;;;;;;;;;;;;7.90;83.48;101264.00;5041492;28;19917;-88
2023/05/21 02:56:52;;;;;;;;;;;;;;;7.90;83.33;101263.16;5040924;28;19913;-88
2023/05/21 02:59:17;;;;;;;;;;;;;;;7.84;83.60;101263.38;5039184;28;19921;-87
2023/05/21 03:01:43;;;;;;;;;;;;;;;7.76;83.79;101260.22;5040803;28;19928;-87
2023/05/21 03:04:09;;;;;;;;;;;;;;;7.68;83.72;101266.44;5038830;28;19971;-87
2023/05/21 03:06:35;;;;;;;;;;;;;;;7.70;84.30;101267.22;5036633;28;19917;-87
2023/05/21 03:09:01;;;;;;;;;;;;;;;7.55;84.28;101267.69;5021270;28;20429;-88
2023/05/21 03:11:26;;;;;;;;;;;;;;;7.43;85.04;101265.53;5038696;28;19918;-87
2023/05/21 03:13:52;;;;;;;;;;;;;;;7.39;85.66;101263.94;5037360;28;19921;-88
2023/05/21 03:16:17;;;;;;;;;;;;;;;7.40;85.18;101257.91;5015352;28;20388;-87
2023/05/21 03:18:43;;;;;;;;;;;;;;;7.37;84.89;101261.41;5037968;28;20335;-88
2023/05/21 03:21:12;;;;;;;;;;;;;;;7.39;84.47;101257.09;5040760;28;20318;-87
2023/05/21 03:23:37;;;;;;;;;;;;;;;7.38;85.16;101254.56;5022232;28;20338;-86
2023/05/21 03:26:02;;;;;;;;;;;;;;;7.38;84.75;101254.56;5038976;28;19917;-87
2023/05/21 03:28:27;;;;;;;;;;;;;;;7.44;84.19;101256.94;5037877;28;19917;-87
2023/05/21 03:30:53;;;;;;;;;;;;;;;7.43;83.52;101255.25;5034898;28;19921;-87
2023/05/21 03:33:18;;;;;;;;;;;;;;;7.37;84.46;101253.72;5036258;28;19974;-87
2023/05/21 03:35:44;;;;;;;;;;;;;;;7.33;84.02;101246.16;5035296;28;19960;-88
2023/05/21 03:38:09;;;;;;;;;;;;;;;7.46;82.17;101239.72;5014952;28;19921;-87
2023/05/21 03:40:34;;;;;;;;;;;;;;;7.55;82.66;101236.88;5036464;28;19917;-88
2023/05/21 03:42:59;;;;;;;;;;;;;;;7.46;83.63;101237.16;5032908;28;20287;-88
2023/05/21 03:45:25;;;;;;;;;;;;;;;7.45;83.67;101243.19;5033413;28;19939;-88
2023/05/21 03:47:50;;;;;;;;;;;;;;;7.43;83.70;101232.97;5033859;28;19975;-88
2023/05/21 03:50:15;;;;;;;;;;;;;;;7.43;84.19;101234.69;5015444;28;19917;-88
2023/05/21 03:52:41;;;;;;;;;;;;;;;7.46;83.84;101242.31;5032932;28;19921;-88
2023/05/21 03:55:06;;;;;;;;;;;;;;;7.28;83.49;101233.44;5015508;28;19921;-88
2023/05/21 03:57:31;;;;;;;;;;;;;;;7.29;83.76;101236.00;5032005;28;19917;-89
2023/05/21 03:59:57;;;;;;;;;;;;;;;7.25;84.13;101231.81;5032152;28;20012;-88
2023/05/21 04:02:24;;;;;;;;;;;;;;;7.32;82.96;101236.78;5033075;28;19928;-89
2023/05/21 04:04:50;;;;;;;;;;;;;;;7.26;83.44;101236.06;5033285;28;19917;-88
2023/05/21 04:07:18;;;;;;;;;;;;;;;7.37;82.03;101242.63;5032779;28;19918;-88
2023/05/21 04:09:43;;;;;;;;;;;;;;;7.34;82.47;101238.41;5015274;28;19928;-88
2023/05/21 04:12:08;;;;;;;;;;;;;;;7.26;82.67;101237.78;5015141;28;19917;-88
2023/05/21 04:14:35;;;;;;;;;;;;;;;7.25;81.92;101242.09;5032031;28;19921;-88
2023/05/21 04:17:03;;;;;;;;;;;;;;;7.33;81.87;101233.31;5032562;28;19940;-88
2023/05/21 04:19:28;;;;;;;;;;;;;;;7.30;82.07;101221.41;5032220;28;20371;-88
2023/05/21 04:21:53;;;;;;;;;;;;;;;7.24;82.91;101225.03;5036638;28;19913;-89
2023/05/21 04:24:19;;;;;;;;;;;;;;;7.17;82.38;101223.53;5036487;28;19943;-89
2023/05/21 04:26:45;;;;;;;;;;;;;;;7.24;82.60;101222.44;5035122;28;19917;-88
2023/05/21 04:29:10;;;;;;;;;;;;;;;7.31;82.00;101219.69;5035582;28;19921;-89
2023/05/21 04:31:35;;;;;;;;;;;;;;;7.35;82.38;101213.56;5018486;28;20397;-88
2023/05/21 04:34:00;;;;;;;;;;;;;;;7.29;82.44;101215.44;5018758;28;20375;-88
2023/05/21 04:36:27;;;;;;;;;;;;;;;7.30;81.98;101223.97;5036335;28;20351;-88
2023/05/21 04:38:53;;;;;;;;;;;;;;;7.36;81.65;101225.50;5018614;28;19917;-89
2023/05/21 04:41:20;;;;;;;;;;;;;;;7.40;81.22;101222.78;5036470;28;19917;-88
2023/05/21 04:43:45;;;;;;;;;;;;;;;7.49;80.78;101214.81;5023802;28;19992;-88
2023/05/21 04:46:10;;;;;;;;;;;;;;;7.57;80.32;101219.69;5016303;28;19917;-89
2023/05/21 04:48:35;;;;;;;;;;;;;;;7.59;80.09;101225.63;5016161;28;20287;-88
2023/05/21 04:51:04;;;;;;;;;;;;;;;7.57;81.04;101229.13;5015830;28;19925;-88
2023/05/21 04:53:29;;;;;;;;;;;;;;;7.60;80.58;101229.84;5015869;28;19922;-88
2023/05/21 04:55:55;;;;;;;;;;;;;;;7.55;81.22;101229.16;5015681;28;20375;-88
2023/05/21 04:58:20;;;;;;;;;;;;;;;7.54;81.42;101230.06;5027263;28;20402;-88
2023/05/21 05:00:45;;;;;;;;;;;;;;;7.60;81.41;101223.88;5035309;28;19924;-88
2023/05/21 05:03:11;;;;;;;;;;;;;;;7.66;80.43;101218.56;5035110;28;19921;-88
2023/05/21 05:05:36;;;;;;;;;;;;;;;7.69;81.28;101218.47;5035334;28;19924;-89
2023/05/21 05:08:02;;;;;;;;;;;;;;;7.78;80.62;101220.72;5035181;28;19991;-88
2023/05/21 05:10:28;;;;;;;;;;;;;;;7.83;79.45;101216.28;5035056;28;19917;-88
2023/05/21 05:12:53;;;;;;;;;;;;;;;7.94;78.40;101213.31;5033974;28;19928;-88
2023/05/21 05:15:18;;;;;;;;;;;;;;;7.78;79.68;101209.59;5035732;28;19917;-89
2023/05/21 05:17:43;;;;;;;;;;;;;;;7.81;81.71;101222.34;5017832;28;19929;-89
2023/05/21 05:20:09;;;;;;;;;;;;;;;7.81;81.25;101217.22;5034924;28;20399;-88
2023/05/21 05:22:34;;;;;;;;;;;;;;;7.88;81.29;101219.53;5017205;28;19917;-88
2023/05/21 05:25:00;;;;;;;;;;;;;;;7.98;79.04;101216.66;5034900;28;20019;-88
2023/05/21 05:27:25;;;;;;;;;;;;;;;8.03;77.70;101217.31;5032746;28;19921;-89
2023/05/21 05:29:50;;;;;;;;;;;;;;;8.04;79.37;101214.69;5033406;28;19932;-89
2023/05/21 05:32:16;;;;;;;;;;;;;;;8.08;78.22;101205.97;5034083;28;19921;-88
2023/05/21 05:34:42;;;;;;;;;;;;;;;8.06;78.52;101206.94;5034937;28;19930;-88
2023/05/21 05:37:07;;;;;;;;;;;;;;;8.17;77.46;101220.25;5034919;28;19996;-88
2023/05/21 05:39:32;;;;;;;;;;;;;;;8.18;78.53;101214.22;5034779;28;19924;-88
2023/05/21 05:41:58;;;;;;;;;;;;;;;8.20;79.52;101215.00;5034615;28;19917;-88
2023/05/21 05:44:23;;;;;;;;;;;;;;;8.37;75.46;101216.97;5015703;28;20028;-88
2023/05/21 05:46:48;;;;;;;;;;;;;;;8.50;74.43;101218.25;5034104;28;20002;-89
2023/05/21 05:49:13;;;;;;;;;;;;;;;8.52;76.21;101226.75;5034032;28;20318;-89
2023/05/21 05:51:39;;;;;;;;;;;;;;;8.53;77.09;101232.72;5033918;28;20283;-89
2023/05/21 05:54:04;;;;;;;;;;;;;;;8.57;77.18;101218.84;5016245;28;20017;-88
2023/05/21 05:56:29;;;;;;;;;;;;;;;8.62;77.88;101226.41;5033060;28;19967;-88
2023/05/21 05:58:55;;;;;;;;;;;;;;;8.72;75.02;101232.91;5033770;28;19917;-89
2023/05/21 06:01:23;;;;;;;;;;;;;;;8.79;74.49;101224.06;5033979;28;19917;-88
2023/05/21 06:03:48;;;;;;;;;;;;;;;8.88;73.98;101234.00;5016043;28;19917;-88
2023/05/21 06:06:13;;;;;;;;;;;;;;;8.97;74.47;101228.53;5033674;28;19924;-89
2023/05/21 06:08:39;;;;;;;;;;;;;;;9.11;75.99;101227.13;5033890;28;19913;-88
2023/05/21 06:11:04;;;;;;;;;;;;;;;9.20;73.06;101229.38;5015852;28;20291;-88
2023/05/21 06:13:30;;;;;;;;;;;;;;;9.39;74.53;101227.75;5032326;28;19928;-88
2023/05/21 06:15:56;;;;;;;;;;;;;;;9.48;71.96;101225.69;5033402;28;19943;-88
2023/05/21 06:18:21;;;;;;;;;;;;;;;9.58;71.32;101224.41;5015642;28;20016;-88
2023/05/21 06:20:46;;;;;;;;;;;;;;;9.83;70.23;101232.81;5033594;28;19917;-88
2023/05/21 06:23:11;;;;;;;;;;;;;;;11.71;65.15;101226.94;5033635;28;19913;-88
2023/05/21 06:25:36;;;;;;;;;;;;;;;13.84;56.78;101230.19;5015724;28;19924;-89
2023/05/21 06:28:02;;;;;;;;;;;;;;;14.48;52.83;101225.50;5014252;28;19980;-88
2023/05/21 06:30:27;;;;;;;;;;;;;;;15.37;50.80;101228.56;5015216;28;19917;-90
2023/05/21 06:32:52;;;;;;;;;;;;;;;16.26;49.65;101225.25;5033229;28;19925;-89
2023/05/21 06:35:17;;;;;;;;;;;;;;;16.88;46.96;101231.41;5033029;28;19917;-88
2023/05/21 06:37:43;;;;;;;;;;;;;;;16.75;48.26;101230.56;5033285;28;19921;-89
2023/05/21 06:40:08;;;;;;;;;;;;;;;17.89;45.26;101226.59;5032982;28;19971;-89
2023/05/21 06:42:33;;;;;;;;;;;;;;;18.28;44.25;101234.94;5023973;28;19922;-91
2023/05/21 06:44:59;;;;;;;;;;;;;;;18.12;43.54;101222.25;5027148;28;19924;-91
2023/05/21 06:47:24;;;;;;;;;;;;;;;19.37;42.71;101233.34;5033028;28;19924;-89
2023/05/21 06:49:49;;;;;;;;;;;;;;;19.05;42.45;101242.00;5033064;28;19921;-89
2023/05/21 06:52:14;;;;;;;;;;;;;;;19.95;40.78;101236.38;5025699;28;20383;-91
2023/05/21 06:54:41;;;;;;;;;;;;;;;19.45;41.95;101249.22;5013169;28;19956;-90
2023/05/21 06:57:06;;;;;;;;;;;;;;;19.91;40.97;101255.09;5008455;28;19975;-90
2023/05/21 06:59:31;;;;;;;;;;;;;;;19.40;41.22;101256.63;5015821;28;20016;-90
2023/05/21 07:01:56;;;;;;;;;;;;;;;20.04;39.84;101251.28;5014391;28;19917;-90
2023/05/21 07:04:22;;;;;;;;;;;;;;;20.21;39.65;101251.66;5014687;28;20011;-91
2023/05/21 07:06:47;;;;;;;;;;;;;;;19.21;40.83;101254.69;5031540;28;19925;-92
2023/05/21 07:09:12;;;;;;;;;;;;;;;19.01;42.03;101251.06;5013253;28;20402;-90
2023/05/21 07:11:38;;;;;;;;;;;;;;;19.01;40.86;101246.66;5029096;28;20294;-89
2023/05/21 07:14:03;;;;;;;;;;;;;;;18.72;41.76;101230.63;5014135;28;20393;-90
2023/05/21 07:16:28;;;;;;;;;;;;;;;19.26;41.62;101236.81;5032555;28;19932;-88
2023/05/21 07:18:54;;;;;;;;;;;;;;;19.74;39.61;101238.16;5032225;28;19917;-90
2023/05/21 07:21:19;;;;;;;;;;;;;;;20.07;39.72;101239.75;5031213;28;19927;-91
2023/05/21 07:23:44;;;;;;;;;;;;;;;19.81;40.70;101240.16;5031152;28;20011;-92
2023/05/21 07:26:10;;;;;;;;;;;;;;;20.10;40.95;101237.69;5031376;28;19910;-92
2023/05/21 07:28:35;;;;;;;;;;;;;;;20.43;39.87;101235.75;5014623;28;19918;-92
2023/05/21 07:31:00;;;;;;;;;;;;;;;20.33;40.52;101231.44;5014602;28;19923;-91
2023/05/21 07:33:26;;;;;;;;;;;;;;;20.47;41.39;101231.06;5031665;28;19921;-92
2023/05/21 07:35:51;;;;;;;;;;;;;;;20.24;40.35;101244.38;5030970;28;20432;-91
2023/05/21 07:38:17;;;;;;;;;;;;;;;19.63;41.73;101234.63;5017125;28;19921;-90
2023/05/21 07:40:42;;;;;;;;;;;;;;;20.38;40.69;101243.19;5014593;28;19917;-91
2023/05/21 07:43:07;;;;;;;;;;;;;;;19.85;41.35;101236.31;5031620;28;20287;-91
2023/05/21 07:45:32;;;;;;;;;;;;;;;20.69;40.22;101245.81;5014787;28;19917;-91
2023/05/21 07:47:57;;;;;;;;;;;;;;;21.13;38.69;101238.41;5029815;28;20007;-91
2023/05/21 07:50:24;;;;;;;;;;;;;;;20.87;39.33;101243.34;5009458;28;19918;-91
2023/05/21 07:52:49;;;;;;;;;;;;;;;21.45;38.77;101247.84;5017740;28;19943;-90
2023/05/21 07:55:14;;;;;;;;;;;;;;;21.98;38.32;101247.34;5015542;28;20371;-91
2023/05/21 07:57:40;;;;;;;;;;;;;;;22.33;37.89;101244.06;5030427;28;19954;-92
2023/05/21 08:00:08;;;;;;;;;;;;;;;21.45;38.86;101232.09;5017986;28;20386;-90
2023/05/21 08:02:33;;;;;;;;;;;;;;;22.20;37.37;101244.41;5035344;28;19917;-92
2023/05/21 08:05:00;;;;;;;;;;;;;;;22.70;37.33;101240.53;5018172;28;19963;-92
2023/05/21 08:07:26;;;;;;;;;;;;;;;21.56;39.66;101237.19;5035946;28;19921;-91
2023/05/21 08:09:52;;;;;;;;;;;;;;;21.70;38.18;101243.81;5016604;28;19921;-92
2023/05/21 08:12:18;;;;;;;;;;;;;;;21.35;39.87;101232.88;5034852;28;19917;-91
2023/05/21 08:14:43;;;;;;;;;;;;;;;21.55;39.67;101235.53;5016852;28;19917;-91
2023/05/21 08:17:12;;;;;;;;;;;;;;;21.58;39.05;101235.25;5034374;28;19935;-90
2023/05/21 08:19:37;;;;;;;;;;;;;;;22.03;39.52;101237.22;5033901;28;19921;-91
2023/05/21 08:22:02;;;;;;;;;;;;;;;22.05;37.89;101237.91;5034314;28;19925;-90
2023/05/21 08:24:28;;;;;;;;;;;;;;;22.22;37.93;101237.19;5034309;28;20299;-90
2023/05/21 08:26:53;;;;;;;;;;;;;;;22.17;39.06;101230.69;5033856;28;20322;-91
2023/05/21 08:29:18;;;;;;;;;;;;;;;22.29;38.17;101231.34;5033331;28;20299;-90
2023/05/21 08:31:44;;;;;;;;;;;;;;;21.53;39.07;101230.44;5034121;28;20015;-90
2023/05/21 08:34:09;;;;;;;;;;;;;;;22.49;37.88;101227.66;5034038;28;20294;-90
2023/05/21 08:36:34;;;;;;;;;;;;;;;21.70;39.89;101230.66;5034055;28;19924;-90
2023/05/21 08:39:00;;;;;;;;;;;;;;;21.87;39.15;101226.47;5031930;28;19921;-90
2023/05/21 08:41:26;;;;;;;;;;;;;;;21.99;39.57;101231.41;5033148;28;20403;-91
2023/05/21 08:43:55;;;;;;;;;;;;;;;21.90;40.80;101231.47;5033888;28;19936;-91
2023/05/21 08:46:21;;;;;;;;;;;;;;;22.15;39.58;101236.06;5033797;28;20360;-92
2023/05/21 08:48:47;;;;;;;;;;;;;;;22.53;39.04;101239.56;5029735;28;19917;-90
2023/05/21 08:51:12;;;;;;;;;;;;;;;22.60;38.71;101230.06;5034094;28;19917;-91
2023/05/21 08:53:37;;;;;;;;;;;;;;;22.52;39.29;101229.16;5033004;28;20295;-91
2023/05/21 08:56:04;;;;;;;;;;;;;;;23.42;38.51;101236.16;5034433;28;19918;-91
2023/05/21 08:58:31;;;;;;;;;;;;;;;23.86;37.43;101238.81;5016096;28;19928;-92
2023/05/21 09:00:56;;;;;;;;;;;;;;;23.70;38.13;101236.03;5034279;28;19932;-91
2023/05/21 09:03:22;;;;;;;;;;;;;;;23.52;38.25;101240.53;5034445;28;19925;-91
2023/05/21 09:05:48;;;;;;;;;;;;;;;23.11;38.56;101243.63;5034234;28;20276;-91
2023/05/21 09:08:28;;;;;;;;;;;;;;;23.44;38.17;101239.47;5017133;28;20353;-91
2023/05/21 09:10:53;;;;;;;;;;;;;;;23.06;40.91;101240.63;4998617;28;20012;-92
2023/05/21 09:13:19;;;;;;;;;;;;;;;22.94;46.55;101247.88;5035043;28;20012;-91
2023/05/21 09:15:45;;;;;;;;;;;;;;;23.37;47.54;101235.78;5033144;28;20279;-92
2023/05/21 09:18:11;;;;;;;;;;;;;;;23.71;40.43;101233.25;5016755;28;19917;-91
2023/05/21 09:20:36;;;;;;;;;;;;;;;23.79;38.43;101236.94;5038389;28;19921;-92
2023/05/21 09:23:03;;;;;;;;;;;;;;;23.65;37.96;101230.41;5015304;28;20283;-91
2023/05/21 09:25:28;;;;;;;;;;;;;;;23.42;36.34;101236.16;5034150;28;20359;-95
2023/05/21 09:27:55;;;;;;;;;;;;;;;22.54;38.67;101230.69;5016647;28;19970;-90
2023/05/21 09:30:20;;;;;;;;;;;;;;;22.25;38.43;101227.38;5016817;28;19917;-91
2023/05/21 09:32:50;;;;;;;;;;;;;;;21.95;39.19;101222.19;5005225;28;19921;-92
2023/05/21 09:35:16;;;;;;;;;;;;;;;21.34;42.85;101220.72;5033042;28;19923;-96
2023/05/21 09:37:42;;;;;;;;;;;;;;;21.67;43.98;101225.69;5034625;28;19991;-95
2023/05/21 09:40:11;;;;;;;;;;;;;;;22.90;38.39;101214.94;5017018;28;19960;-94
2023/05/21 09:42:37;;;;;;;;;;;;;;;22.93;38.98;101214.63;5033659;28;19944;-93
2023/05/21 09:45:03;;;;;;;;;;;;;;;23.30;38.43;101218.94;5016660;28;20318;-91
2023/05/21 09:47:28;;;;;;;;;;;;;;;23.33;37.47;101218.63;5033125;28;19922;-91
2023/05/21 09:49:56;;;;;;;;;;;;;;;23.63;36.63;101216.53;5032983;28;19927;-93
2023/05/21 09:52:25;;;;;;;;;;;;;;;24.11;37.49;101209.94;5030964;28;19947;-92
2023/05/21 09:54:51;;;;;;;;;;;;;;;23.89;35.96;101206.03;5022077;28;19928;-93
2023/05/21 09:57:21;;;;;;;;;;;;;;;23.68;37.68;101203.75;5014922;28;19921;-93
2023/05/21 09:59:49;;;;;;;;;;;;;;;24.31;36.94;101194.69;5015880;28;19917;-91
2023/05/21 10:02:18;;;;;;;;;;;;;;;23.55;38.97;101203.31;5033555;28;19921;-92
2023/05/21 10:04:46;;;;;;;;;;;;;;;23.83;38.46;101191.69;5015978;28;19927;-94
2023/05/21 10:07:12;;;;;;;;;;;;;;;23.79;37.99;101195.59;5016295;28;20298;-91
2023/05/21 10:09:38;;;;;;;;;;;;;;;23.12;38.06;101202.31;5034573;28;19917;-93
2023/05/21 10:12:03;;;;;;;;;;;;;;;23.59;39.10;101202.03;5032560;28;19921;-92
2023/05/21 10:14:30;;;;;;;;;;;;;;;23.66;38.50;101195.16;5011642;28;19921;-93
2023/05/21 10:16:56;;;;;;;;;;;;;;;24.20;37.91;101194.97;5032732;28;19917;-93
2023/05/21 10:19:22;;;;;;;;;;;;;;;23.73;37.31;101196.22;5033331;28;19975;-94
2023/05/21 10:21:48;;;;;;;;;;;;;;;24.95;35.36;101197.69;5031034;28;19921;-93
2023/05/21 10:24:14;;;;;;;;;;;;;;;25.50;33.50;101194.38;5013330;28;19925;-95
2023/05/21 10:26:40;;;;;;;;;;;;;;;24.59;34.29;101192.66;5012641;28;19928;-93
2023/05/21 10:29:06;;;;;;;;;;;;;;;24.31;37.38;101200.81;5011490;28;20298;-93
2023/05/21 10:31:32;;;;;;;;;;;;;;;23.53;37.23;101190.28;5015726;28;19963;-94
2023/05/21 10:33:57;;;;;;;;;;;;;;;24.80;35.87;101194.00;5015228;28;20011;-94
2023/05/21 10:36:24;;;;;;;;;;;;;;;24.48;36.67;101183.25;5028948;28;19957;-93
2023/05/21 10:38:49;;;;;;;;;;;;;;;25.79;33.04;101179.78;5012892;28;19981;-94
2023/05/21 10:41:16;;;;;;;;;;;;;;;26.32;33.13;101182.75;5011893;28;20016;-93
2023/05/21 10:44:00;;;;;;;;;;;;;;;24.67;33.57;101183.94;5010162;28;20296;-93
2023/05/21 10:46:54;;;;;;;;;;;;;;;25.33;32.24;101184.81;5012107;28;19921;-94
2023/05/21 10:49:38;;;;;;;;;;;;;;;25.82;32.15;101180.28;5016726;28;20379;-95
2023/05/21 10:52:13;;;;;;;;;;;;;;;25.99;32.55;101181.06;5018629;28;19928;-95
2023/05/21 10:54:51;;;;;;;;;;;;;;;25.40;34.57;101185.81;4996104;28;19919;-94
2023/05/21 10:57:35;;;;;;;;;;;;;;;26.09;33.19;101177.38;4996163;28;20410;-94
2023/05/21 11:00:02;;;;;;;;;;;;;;;25.64;32.36;101171.72;5028905;28;20430;-95
2023/05/21 11:02:28;;;;;;;;;;;;;;;25.98;33.13;101166.19;4996229;28;19984;-94
2023/05/21 11:05:03;;;;;;;;;;;;;;;25.49;33.13;101163.66;5013467;28;20391;-93
2023/05/21 11:07:47;;;;;;;;;;;;;;;26.09;32.55;101169.44;5015636;28;19917;-95
2023/05/21 11:10:32;;;;;;;;;;;;;;;25.81;33.54;101161.94;5033426;28;19924;-95
2023/05/21 11:13:07;;;;;;;;;;;;;;;27.01;30.39;101153.66;5004814;28;19968;-95
2023/05/21 11:15:51;;;;;;;;;;;;;;;26.48;31.31;101149.06;5032937;28;20371;-95
2023/05/21 11:18:17;;;;;;;;;;;;;;;25.83;32.68;101154.66;5033095;28;19924;-94
2023/05/21 11:20:43;;;;;;;;;;;;;;;25.91;31.28;101156.47;5013763;28;19921;-94
2023/05/21 11:23:10;;;;;;;;;;;;;;;25.72;31.87;101158.47;5032840;28;20318;-94
2023/05/21 11:25:35;;;;;;;;;;;;;;;25.89;32.43;101150.53;5015170;28;20374;-94
2023/05/21 11:28:04;;;;;;;;;;;;;;;26.40;32.73;101151.75;5014974;28;19957;-95
2023/05/21 11:30:29;;;;;;;;;;;;;;;25.48;33.46;101140.84;5014705;28;19937;-93
2023/05/21 11:33:07;;;;;;;;;;;;;;;25.05;34.68;101140.22;5014912;28;20003;-93
2023/05/21 11:35:44;;;;;;;;;;;;;;;24.65;35.01;101151.59;5014253;28;19925;-94
2023/05/21 11:38:10;;;;;;;;;;;;;;;25.99;31.77;101149.31;5015038;28;19939;-94
2023/05/21 11:40:35;;;;;;;;;;;;;;;25.80;32.24;101152.31;5032648;28;20368;-94
2023/05/21 11:43:00;;;;;;;;;;;;;;;25.69;33.71;101144.78;5032827;28;20172;-94
2023/05/21 11:45:30;;;;;;;;;;;;;;;26.05;32.84;101139.88;5015012;28;19917;-93
2023/05/21 11:47:55;;;;;;;;;;;;;;;25.63;33.35;101133.88;5015013;28;20084;-94
2023/05/21 11:50:21;;;;;;;;;;;;;;;25.67;35.03;101133.53;5031520;28;20032;-93
2023/05/21 11:52:47;;;;;;;;;;;;;;;26.12;33.16;101138.19;5014818;28;19921;-95
2023/05/21 11:55:14;;;;;;;;;;;;;;;27.05;31.87;101134.59;5014731;28;19928;-94
2023/05/21 11:57:40;;;;;;;;;;;;;;;27.04;31.75;101132.97;5014805;28;19955;-96
2023/05/21 12:00:12;;;;;;;;;;;;;;;26.61;32.72;101137.09;5032337;28;20442;-96
2023/05/21 12:02:38;;;;;;;;;;;;;;;26.31;33.37;101136.09;5014820;28;19924;-95
2023/05/21 12:05:03;;;;;;;;;;;;;;;25.96;34.46;101127.69;5031421;28;19921;-94
2023/05/21 12:07:29;;;;;;;;;;;;;;;26.03;34.11;101128.63;5032154;28;19924;-94
2023/05/21 12:09:54;;;;;;;;;;;;;;;26.14;33.57;101125.63;5014435;28;20286;-95
2023/05/21 12:12:21;;;;;;;;;;;;;;;26.63;34.21;101120.03;5014766;28;19917;-94
2023/05/21 12:14:50;;;;;;;;;;;;;;;26.31;33.60;101126.31;5014765;28;19917;-94
2023/05/21 12:17:16;;;;;;;;;;;;;;;25.88;32.31;101130.38;5014625;28;19921;-95
2023/05/21 12:19:42;;;;;;;;;;;;;;;26.37;30.21;101122.16;5013534;28;19921;-94
2023/05/21 12:22:07;;;;;;;;;;;;;;;26.07;33.25;101129.94;5015070;28;19921;-95
2023/05/21 12:24:33;;;;;;;;;;;;;;;26.71;32.72;101121.78;5014346;28;19924;-95
2023/05/21 12:27:00;;;;;;;;;;;;;;;25.80;32.47;101124.09;5032054;28;19910;-94
2023/05/21 12:29:26;;;;;;;;;;;;;;;26.81;31.19;101132.97;5014476;28;19918;-94
2023/05/21 12:31:52;;;;;;;;;;;;;;;26.63;30.38;101122.69;5032290;28;19928;-94
2023/05/21 12:34:36;;;;;;;;;;;;;;;26.69;33.12;101113.19;5031291;28;19921;-94
2023/05/21 12:37:01;;;;;;;;;;;;;;;26.79;31.47;101119.06;5013662;28;19921;-95